createdAt,value
2022-11-25T00:02:55.900Z,18.53
2022-11-25T00:05:58.659Z,21.50
2022-11-25T00:09:05.635Z,23.30
2022-11-25T00:12:08.469Z,21.43
2022-11-25T00:15:11.192Z,18.90
2022-11-25T00:18:13.797Z,19.63
2022-11-25T00:21:18.782Z,18.27
2022-11-25T00:24:22.787Z,19.97
2022-11-25T00:27:25.399Z,23.83
2022-11-25T00:30:28.050Z,21.87
2022-11-25T00:33:30.660Z,22.80
2022-11-25T00:36:35.217Z,19.07
2022-11-25T00:39:39.160Z,21.53
2022-11-25T00:42:59.245Z,20.60
2022-11-25T00:46:01.915Z,23.83
2022-11-25T00:49:04.589Z,21.20
2022-11-25T00:52:07.834Z,19.83
2022-11-25T00:55:11.852Z,25.77
2022-11-25T00:58:14.461Z,22.30
2022-11-25T01:01:17.113Z,27.10
2022-11-25T01:04:19.786Z,21.00
2022-11-25T01:07:22.485Z,20.70
2022-11-25T01:10:26.498Z,24.30
2022-11-25T01:13:29.183Z,25.00
2022-11-25T01:16:32.051Z,22.60
2022-11-25T01:19:38.246Z,22.63
2022-11-25T01:22:40.883Z,19.53
2022-11-25T01:25:44.831Z,21.50
2022-11-25T01:28:48.402Z,22.63
2022-11-25T01:31:51.580Z,23.80
2022-11-25T01:34:54.260Z,22.03
2022-11-25T01:37:56.918Z,27.57
2022-11-25T01:41:01.621Z,23.67
2022-11-25T01:44:06.512Z,24.27
2022-11-25T01:47:16.006Z,20.70
2022-11-25T01:50:22.361Z,22.90
2022-11-25T01:53:25.161Z,28.20
2022-11-25T01:56:33.048Z,27.87
2022-11-25T01:59:40.503Z,23.33
2022-11-25T02:02:43.757Z,24.63
2022-11-25T02:05:52.503Z,25.97
2022-11-25T02:08:59.430Z,23.40
2022-11-25T02:12:04.588Z,24.87
2022-11-25T02:15:08.797Z,28.20
2022-11-25T02:18:11.463Z,28.70
2022-11-25T02:21:16.502Z,23.40
2022-11-25T02:24:25.521Z,23.87
2022-11-25T02:27:30.024Z,23.33
2022-11-25T02:30:32.768Z,26.40
2022-11-25T02:33:35.422Z,28.53
2022-11-25T02:36:38.391Z,21.17
2022-11-25T02:39:41.100Z,22.67
2022-11-25T02:42:45.656Z,24.67
2022-11-25T02:45:57.424Z,21.37
2022-11-25T02:49:08.958Z,24.73
2022-11-25T02:52:12.170Z,21.30
2022-11-25T02:55:14.803Z,24.47
2022-11-25T02:58:19.546Z,20.60
2022-11-25T03:01:22.777Z,26.67
2022-11-25T03:04:25.419Z,30.10
2022-11-25T03:07:28.130Z,24.63
2022-11-25T03:10:31.343Z,29.07
2022-11-25T03:13:35.467Z,24.87
2022-11-25T03:16:38.241Z,20.20
2022-11-25T03:19:41.058Z,23.97
2022-11-25T03:22:44.097Z,23.20
2022-11-25T03:25:46.725Z,24.13
2022-11-25T03:28:50.654Z,25.47
2022-11-25T03:31:53.351Z,27.30
2022-11-25T03:34:56.020Z,23.17
2022-11-25T03:37:58.628Z,24.50
2022-11-25T03:41:01.380Z,23.23
2022-11-25T03:44:05.417Z,22.23
2022-11-25T03:47:08.061Z,24.20
2022-11-25T03:50:13.608Z,19.90
2022-11-25T03:53:16.228Z,19.67
2022-11-25T03:56:18.827Z,23.97
2022-11-25T03:59:22.857Z,25.67
2022-11-25T04:02:25.588Z,22.30
2022-11-25T04:05:28.263Z,23.60
2022-11-25T04:08:30.894Z,20.83
2022-11-25T04:11:47.630Z,20.50
2022-11-25T04:14:51.645Z,25.23
2022-11-25T04:17:54.316Z,20.13
2022-11-25T04:20:56.997Z,20.40
2022-11-25T04:23:59.631Z,21.50
2022-11-25T04:27:02.254Z,22.97
2022-11-25T04:30:07.718Z,19.40
2022-11-25T04:33:10.347Z,20.67
2022-11-25T04:36:12.945Z,22.40
2022-11-25T04:39:15.571Z,24.17
2022-11-25T04:42:33.144Z,19.23
2022-11-25T04:45:59.024Z,17.83
2022-11-25T04:48:59.714Z,23.47
2022-11-25T04:52:02.379Z,21.13
2022-11-25T04:55:06.797Z,19.47
2022-11-25T04:58:10.904Z,20.83
2022-11-25T05:01:14.006Z,20.03
2022-11-25T05:04:16.658Z,21.60
2022-11-25T05:07:21.944Z,20.63
2022-11-25T05:10:24.784Z,21.97
2022-11-25T05:13:27.715Z,21.00
2022-11-25T05:16:31.786Z,20.70
2022-11-25T05:19:36.267Z,20.87
2022-11-25T05:22:38.984Z,19.47
2022-11-25T05:25:41.593Z,21.13
2022-11-25T05:28:44.259Z,24.53
2022-11-25T05:31:48.246Z,25.07
2022-11-25T05:34:50.888Z,18.57
2022-11-25T05:37:53.491Z,22.80
2022-11-25T05:41:02.233Z,19.75
2022-11-25T05:44:05.304Z,18.70
2022-11-25T05:47:10.019Z,18.33
2022-11-25T05:50:12.685Z,14.27
2022-11-25T05:53:17.249Z,19.20
2022-11-25T05:56:19.844Z,17.40
2022-11-25T05:59:22.477Z,18.17
2022-11-25T06:02:26.560Z,18.07
2022-11-25T06:05:29.233Z,17.27
2022-11-25T06:08:31.920Z,14.50
2022-11-25T06:11:34.767Z,19.07
2022-11-25T06:14:37.586Z,17.13
2022-11-25T06:17:41.861Z,17.20
2022-11-25T06:20:45.702Z,18.70
2022-11-25T06:23:48.628Z,18.57
2022-11-25T06:26:51.239Z,17.60
2022-11-25T06:29:53.850Z,15.57
2022-11-25T06:32:57.828Z,17.83
2022-11-25T06:36:00.523Z,17.73
2022-11-25T06:39:03.168Z,13.10
2022-11-25T06:42:05.943Z,13.60
2022-11-25T06:45:09.838Z,12.87
2022-11-25T06:48:13.809Z,12.03
2022-11-25T06:51:17.297Z,13.17
2022-11-25T06:54:19.910Z,12.17
2022-11-25T06:57:22.565Z,11.73
2022-11-25T07:00:25.344Z,15.13
2022-11-25T07:03:29.679Z,12.13
2022-11-25T07:06:33.451Z,14.80
2022-11-25T07:09:36.085Z,15.73
2022-11-25T07:12:38.707Z,11.93
2022-11-25T07:15:41.396Z,13.47
2022-11-25T07:18:45.555Z,15.23
2022-11-25T07:21:48.318Z,16.00
2022-11-25T07:24:50.963Z,11.20
2022-11-25T07:27:53.554Z,14.40
2022-11-25T07:34:21.761Z,11.10
2022-11-25T07:37:24.391Z,13.63
2022-11-25T07:40:27.066Z,13.63
2022-11-25T07:43:29.753Z,11.57
2022-11-25T07:46:35.569Z,14.93
2022-11-25T07:49:39.860Z,14.77
2022-11-25T07:52:42.509Z,16.90
2022-11-25T07:55:46.215Z,13.37
2022-11-25T07:58:49.634Z,12.57
2022-11-25T08:01:53.485Z,11.90
2022-11-25T08:04:57.509Z,15.30
2022-11-25T08:08:00.164Z,10.57
2022-11-25T08:11:06.590Z,18.80
2022-11-25T08:14:10.226Z,12.33
2022-11-25T08:17:12.885Z,16.53
2022-11-25T08:20:17.019Z,11.40
2022-11-25T08:23:19.676Z,23.20
2022-11-25T08:26:25.657Z,16.23
2022-11-25T08:29:28.383Z,16.07
2022-11-25T08:32:30.987Z,14.90
2022-11-25T08:35:37.852Z,16.20
2022-11-25T08:38:42.067Z,15.23
2022-11-25T08:41:44.691Z,15.53
2022-11-25T08:44:47.364Z,14.97
2022-11-25T08:47:50.024Z,18.57
2022-11-25T08:50:55.536Z,11.50
2022-11-25T08:53:58.630Z,14.27
2022-11-25T08:57:01.455Z,17.07
2022-11-25T09:00:05.460Z,11.20
2022-11-25T09:03:08.335Z,12.30
2022-11-25T09:06:13.384Z,14.80
2022-11-25T09:09:16.171Z,17.20
2022-11-25T09:12:18.843Z,18.77
2022-11-25T09:15:21.541Z,18.97
2022-11-25T09:18:26.144Z,13.27
2022-11-25T09:21:30.106Z,13.90
2022-11-25T09:24:32.721Z,15.17
2022-11-25T09:27:35.322Z,19.67
2022-11-25T09:30:38.298Z,10.23
2022-11-25T09:33:40.905Z,16.67
2022-11-25T09:36:46.212Z,16.47
2022-11-25T09:39:50.680Z,19.53
2022-11-25T09:43:17.282Z,15.73
2022-11-25T09:46:46.007Z,13.57
2022-11-25T09:50:04.035Z,13.70
2022-11-25T09:53:18.253Z,13.67
2022-11-25T09:56:29.533Z,18.90
2022-11-25T09:59:40.417Z,13.40
2022-11-25T10:02:48.923Z,11.40
2022-11-25T10:06:03.129Z,12.90
2022-11-25T10:09:15.100Z,11.13
2022-11-25T10:12:25.888Z,19.53
2022-11-25T10:15:34.396Z,12.03
2022-11-25T10:18:43.532Z,15.20
2022-11-25T10:21:47.160Z,12.57
2022-11-25T10:24:53.933Z,15.60
2022-11-25T10:28:00.204Z,12.47
2022-11-25T10:31:07.436Z,15.83
2022-11-25T10:34:16.988Z,15.63
2022-11-25T10:37:27.662Z,14.20
2022-11-25T10:40:31.822Z,16.83
2022-11-25T10:43:35.120Z,17.03
2022-11-25T10:47:12.441Z,17.00
2022-11-25T10:50:17.137Z,16.63
2022-11-25T10:53:25.347Z,18.40
2022-11-25T10:56:29.339Z,15.93
2022-11-25T10:59:34.179Z,11.27
2022-11-25T11:02:40.438Z,11.07
2022-11-25T11:05:48.735Z,18.30
2022-11-25T11:08:51.393Z,17.53
2022-11-25T11:11:55.407Z,15.03
2022-11-25T11:15:19.580Z,13.63
2022-11-25T11:18:26.582Z,16.53
2022-11-25T11:21:34.464Z,15.87
2022-11-25T11:24:37.924Z,13.37
2022-11-25T11:27:42.211Z,18.53
2022-11-25T11:30:56.481Z,14.70
2022-11-25T11:34:05.231Z,16.03
2022-11-25T11:37:22.980Z,16.77
2022-11-25T11:40:33.605Z,17.67
2022-11-25T11:43:50.286Z,10.87
2022-11-25T11:47:14.512Z,17.97
2022-11-25T11:50:27.318Z,16.33
2022-11-25T11:53:36.771Z,13.63
2022-11-25T11:56:42.955Z,14.87
2022-11-25T11:59:53.649Z,18.43
2022-11-25T12:03:05.140Z,17.47
2022-11-25T12:06:11.556Z,14.17
2022-11-25T12:09:20.449Z,16.00
2022-11-25T12:12:33.355Z,13.10
2022-11-25T12:15:46.340Z,16.43
2022-11-25T12:18:54.237Z,13.70
2022-11-25T12:22:05.262Z,15.77
2022-11-25T12:25:15.300Z,14.73
2022-11-25T12:28:22.133Z,16.20
2022-11-25T12:31:30.339Z,10.00
2022-11-25T12:34:40.943Z,14.07
2022-11-25T12:37:48.042Z,15.23
2022-11-25T12:40:58.044Z,16.03
2022-11-25T12:44:07.816Z,16.83
2022-11-25T12:47:12.749Z,15.87
2022-11-25T12:50:18.036Z,14.77
2022-11-25T12:53:30.025Z,20.33
2022-11-25T12:56:46.855Z,19.90
2022-11-25T13:00:39.294Z,19.43
2022-11-25T13:03:51.026Z,20.87
2022-11-25T13:07:17.902Z,16.20
2022-11-25T13:10:45.312Z,20.77
2022-11-25T13:13:53.547Z,17.63
2022-11-25T13:16:58.314Z,25.30
2022-11-25T13:20:33.064Z,19.17
2022-11-25T13:23:58.464Z,24.67
2022-11-25T13:27:02.373Z,17.03
2022-11-25T13:30:05.799Z,23.03
2022-11-25T13:33:44.438Z,18.90
2022-11-25T13:36:50.784Z,26.50
2022-11-25T13:40:32.778Z,18.67
2022-11-25T13:43:35.407Z,24.00
2022-11-25T13:46:40.999Z,20.07
2022-11-25T13:49:53.296Z,14.77
2022-11-25T13:53:01.523Z,14.37
2022-11-25T13:56:15.797Z,15.93
2022-11-25T13:59:37.353Z,13.80
2022-11-25T14:02:49.307Z,16.50
2022-11-25T14:06:05.226Z,18.60
2022-11-25T14:09:21.233Z,21.80
2022-11-25T14:12:51.027Z,15.40
2022-11-25T14:16:09.469Z,19.47
2022-11-25T14:19:55.346Z,16.87
2022-11-25T14:23:35.875Z,14.70
2022-11-25T14:26:56.166Z,20.87
2022-11-25T14:30:02.346Z,10.83
2022-11-25T14:33:09.269Z,15.30
2022-11-25T14:36:16.167Z,14.50
2022-11-25T14:39:25.805Z,17.50
2022-11-25T14:42:36.118Z,22.23
2022-11-25T14:45:39.022Z,22.17
2022-11-25T14:48:42.247Z,14.73
2022-11-25T14:51:48.584Z,16.97
2022-11-25T14:54:53.087Z,16.07
2022-11-25T14:57:57.282Z,15.20
2022-11-25T15:01:02.956Z,16.57
2022-11-25T15:04:08.372Z,20.42
2022-11-25T15:07:19.802Z,14.30
2022-11-25T15:10:42.445Z,20.57
2022-11-25T15:13:48.778Z,18.50
2022-11-25T15:16:51.853Z,17.80
2022-11-25T15:19:56.951Z,23.30
2022-11-25T15:22:59.591Z,19.43
2022-11-25T15:26:03.757Z,19.43
2022-11-25T15:29:13.509Z,16.83
2022-11-25T15:32:18.890Z,18.30
2022-11-25T15:35:23.956Z,15.17
2022-11-25T15:38:38.991Z,16.53
2022-11-25T15:41:43.504Z,17.00
2022-11-25T15:44:52.025Z,16.73
2022-11-25T15:47:54.777Z,20.50
2022-11-25T15:51:03.496Z,13.40
2022-11-25T15:54:15.125Z,21.73
2022-11-25T15:57:20.091Z,22.20
2022-11-25T16:00:25.212Z,21.13
2022-11-25T16:03:27.859Z,18.87
2022-11-25T16:06:30.979Z,18.37
2022-11-25T16:09:33.795Z,19.63
2022-11-25T16:12:36.458Z,18.87
2022-11-25T16:15:46.899Z,21.37
2022-11-25T16:19:12.450Z,20.27
2022-11-25T16:22:18.052Z,21.43
2022-11-25T16:25:20.808Z,19.87
2022-11-25T16:28:24.532Z,22.53
2022-11-25T16:31:28.696Z,17.97
2022-11-25T16:34:31.434Z,21.20
2022-11-25T16:37:34.116Z,24.47
2022-11-25T16:40:37.959Z,19.53
2022-11-25T16:43:40.600Z,19.83
2022-11-25T16:46:44.581Z,21.07
2022-11-25T16:49:47.470Z,17.13
2022-11-25T16:52:50.669Z,21.30
2022-11-25T16:55:53.320Z,24.27
2022-11-25T16:58:56.659Z,20.27
2022-11-25T17:02:02.402Z,25.03
2022-11-25T17:05:18.119Z,20.57
2022-11-25T17:08:20.777Z,22.47
2022-11-25T17:11:29.314Z,20.47
2022-11-25T17:14:34.596Z,31.50
2022-11-25T17:17:38.708Z,23.23
2022-11-25T17:20:41.471Z,24.20
2022-11-25T17:23:44.620Z,32.57
2022-11-25T17:26:49.724Z,25.23
2022-11-25T17:29:53.204Z,25.03
2022-11-25T17:33:01.896Z,22.53
2022-11-25T17:36:04.948Z,21.53
2022-11-25T17:39:07.625Z,17.63
2022-11-25T17:42:14.529Z,18.17
2022-11-25T17:45:19.600Z,24.43
2022-11-25T17:48:23.559Z,21.43
2022-11-25T17:51:26.206Z,17.77
2022-11-25T17:54:28.874Z,24.10
2022-11-25T17:57:31.511Z,20.37
2022-11-25T18:00:35.231Z,22.07
2022-11-25T18:03:39.258Z,17.80
2022-11-25T18:06:41.900Z,26.23
2022-11-25T18:09:45.139Z,23.03
2022-11-25T18:12:50.710Z,22.70
2022-11-25T18:15:53.612Z,23.97
2022-11-25T18:18:57.874Z,24.33
2022-11-25T18:22:02.180Z,25.37
2022-11-25T18:25:08.217Z,22.60
2022-11-25T18:28:17.636Z,23.07
2022-11-25T18:31:20.301Z,22.20
2022-11-25T18:34:25.063Z,27.70
2022-11-25T18:37:27.709Z,32.17
2022-11-25T18:40:30.974Z,33.93
2022-11-25T18:43:37.412Z,25.67
2022-11-25T18:46:40.674Z,32.57
2022-11-25T18:49:44.648Z,27.83
2022-11-25T18:52:47.687Z,27.27
2022-11-25T18:55:51.087Z,26.77
2022-11-25T18:58:53.855Z,25.60
2022-11-25T19:01:56.609Z,34.10
2022-11-25T19:05:00.754Z,35.37
2022-11-25T19:08:03.358Z,30.87
2022-11-25T19:11:07.321Z,31.60
2022-11-25T19:14:13.537Z,30.63
2022-11-25T19:17:20.897Z,37.80
2022-11-25T19:20:25.867Z,30.67
2022-11-25T19:23:29.034Z,32.00
2022-11-25T19:26:41.122Z,29.43
2022-11-25T19:29:44.938Z,38.33
2022-11-25T19:32:49.081Z,38.97
2022-11-25T19:35:53.541Z,37.53
2022-11-25T19:38:56.237Z,33.97
2022-11-25T19:41:58.856Z,29.27
2022-11-25T19:45:03.363Z,33.33
2022-11-25T19:48:08.728Z,32.17
2022-11-25T19:51:12.796Z,34.67
2022-11-25T19:54:17.205Z,40.33
2022-11-25T19:57:22.221Z,33.40
2022-11-25T20:00:25.901Z,38.00
2022-11-25T20:03:31.116Z,37.57
2022-11-25T20:06:35.272Z,41.23
2022-11-25T20:09:37.898Z,39.13
2022-11-25T20:12:40.742Z,32.93
2022-11-25T20:15:45.402Z,40.70
2022-11-25T20:18:48.495Z,37.63
2022-11-25T20:21:52.510Z,39.00
2022-11-25T20:24:56.467Z,34.00
2022-11-25T20:27:59.080Z,32.80
2022-11-25T20:31:01.739Z,34.87
2022-11-25T20:34:04.362Z,34.33
2022-11-25T20:37:09.924Z,31.53
2022-11-25T20:40:17.481Z,33.37
2022-11-25T20:43:28.719Z,33.07
2022-11-25T20:46:31.395Z,33.80
2022-11-25T20:49:34.074Z,36.67
2022-11-25T20:52:38.924Z,30.43
2022-11-25T20:55:42.079Z,38.07
2022-11-25T20:58:45.048Z,41.20
2022-11-25T21:01:47.798Z,36.27
2022-11-25T21:04:50.485Z,33.40
2022-11-25T21:07:55.183Z,29.97
2022-11-25T21:10:59.565Z,33.20
2022-11-25T21:14:02.179Z,29.27
2022-11-25T21:17:04.779Z,33.77
2022-11-25T21:20:09.166Z,29.17
2022-11-25T21:23:19.915Z,32.43
2022-11-25T21:26:26.088Z,31.23
2022-11-25T21:29:29.861Z,28.30
2022-11-25T21:32:32.506Z,32.50
2022-11-25T21:35:37.354Z,33.40
2022-11-25T21:38:41.356Z,29.23
2022-11-25T21:41:44.126Z,37.53
2022-11-25T21:44:47.796Z,34.43
2022-11-25T21:47:50.416Z,29.93
2022-11-25T21:50:53.803Z,22.90
2022-11-25T21:53:57.836Z,27.57
2022-11-25T21:57:00.596Z,26.90
2022-11-25T22:00:03.337Z,36.27
2022-11-25T22:03:11.488Z,36.27
2022-11-25T22:06:20.759Z,44.57
2022-11-25T22:09:26.627Z,32.37
2022-11-25T22:12:34.300Z,27.87
2022-11-25T22:15:39.476Z,33.60
2022-11-25T22:18:42.767Z,34.97
2022-11-25T22:21:45.429Z,30.60
2022-11-25T22:24:49.475Z,30.20
2022-11-25T22:27:52.500Z,28.07
2022-11-25T22:30:57.520Z,29.57
2022-11-25T22:34:00.156Z,28.50
2022-11-25T22:37:02.773Z,23.63
2022-11-25T22:40:08.289Z,30.30
2022-11-25T22:43:17.771Z,32.30
2022-11-25T22:46:20.544Z,28.50
2022-11-25T22:49:35.948Z,30.30
2022-11-25T22:52:38.834Z,27.50
2022-11-25T22:55:43.011Z,36.03
2022-11-25T22:58:46.303Z,34.93
2022-11-25T23:01:49.237Z,19.50
2022-11-25T23:04:54.903Z,21.90
2022-11-25T23:07:57.741Z,21.07
2022-11-25T23:11:01.878Z,26.27
2022-11-25T23:14:04.508Z,20.33
2022-11-25T23:17:13.329Z,23.03
2022-11-25T23:20:19.266Z,20.73
2022-11-25T23:23:24.324Z,28.90
2022-11-25T23:26:33.632Z,28.83
2022-11-25T23:29:37.630Z,23.80
2022-11-25T23:32:40.233Z,16.83
2022-11-25T23:35:42.880Z,29.50
2022-11-25T23:38:48.045Z,22.00
2022-11-25T23:41:52.682Z,24.87
2022-11-25T23:44:55.284Z,12.87
2022-11-25T23:47:58.248Z,24.20
2022-11-25T23:51:01.421Z,19.47
2022-11-25T23:54:04.177Z,17.23
2022-11-25T23:57:14.339Z,19.43
